Weather at Portland International Airport

Public forecast

Using degrees Fahrenheit for public forecast. Weather courtesy of forecast.io.

Current aviation weather report (METAR) for Portland International Airport

Retrieved 2020/10/26 23:53 UTC (51 minutes ago):

KPDX 262353Z 00000KT 10SM CLR 13/M03 A3042 RMK AO2 SLP301 T01281028 10128 20056 58010

Aviation forecast (TAF) for Portland International Airport

Retrieved 2020-10-27 00:40 UTC (4 minutes ago):

TAF KPDX 262338Z 2700/2724 VRB03KT P6SM SKC FM271500 00000KT P6SM BKN030 FM272100 33004KT P6SM SCT030